sensor_id;sensor_type;location;lat;lon;timestamp;temperature;humidity
16758;DHT22;8497;51.346;12.396;2024-03-25T00:01:07;7.30;99.90
16758;DHT22;8497;51.346;12.396;2024-03-25T00:03:35;7.30;99.90
16758;DHT22;8497;51.346;12.396;2024-03-25T00:06:02;7.20;99.90
16758;DHT22;8497;51.346;12.396;2024-03-25T00:08:33;7.20;99.90
16758;DHT22;8497;51.346;12.396;2024-03-25T00:11:03;7.10;99.90
16758;DHT22;8497;51.346;12.396;2024-03-25T00:13:31;7.10;99.90
16758;DHT22;8497;51.346;12.396;2024-03-25T00:15:57;7.10;99.90
16758;DHT22;8497;51.346;12.396;2024-03-25T00:18:25;7.10;99.90
16758;DHT22;8497;51.346;12.396;2024-03-25T00:20:51;7.10;99.90
16758;DHT22;8497;51.346;12.396;2024-03-25T00:23:19;7.10;99.90
16758;DHT22;8497;51.346;12.396;2024-03-25T00:25:46;7.10;99.90
16758;DHT22;8497;51.346;12.396;2024-03-25T00:28:15;7.10;99.90
16758;DHT22;8497;51.346;12.396;2024-03-25T00:30:42;6.30;99.90
16758;DHT22;8497;51.346;12.396;2024-03-25T00:33:12;7.20;99.90
16758;DHT22;8497;51.346;12.396;2024-03-25T00:35:52;7.20;99.90
16758;DHT22;8497;51.346;12.396;2024-03-25T00:38:28;7.20;99.90
16758;DHT22;8497;51.346;12.396;2024-03-25T00:40:56;7.20;99.90
16758;DHT22;8497;51.346;12.396;2024-03-25T00:43:28;7.20;99.90
16758;DHT22;8497;51.346;12.396;2024-03-25T00:45:55;7.20;99.90
16758;DHT22;8497;51.346;12.396;2024-03-25T00:48:23;8.10;99.90
16758;DHT22;8497;51.346;12.396;2024-03-25T00:50:49;7.20;99.90
16758;DHT22;8497;51.346;12.396;2024-03-25T00:53:19;7.20;99.90
16758;DHT22;8497;51.346;12.396;2024-03-25T00:55:46;7.20;99.90
16758;DHT22;8497;51.346;12.396;2024-03-25T00:58:13;7.20;99.90
16758;DHT22;8497;51.346;12.396;2024-03-25T01:00:42;7.20;99.90
16758;DHT22;8497;51.346;12.396;2024-03-25T01:03:10;7.20;99.90
16758;DHT22;8497;51.346;12.396;2024-03-25T01:05:36;7.20;99.90
16758;DHT22;8497;51.346;12.396;2024-03-25T01:08:05;7.20;99.90
16758;DHT22;8497;51.346;12.396;2024-03-25T01:10:31;7.20;99.90
16758;DHT22;8497;51.346;12.396;2024-03-25T01:12:59;7.20;99.90
16758;DHT22;8497;51.346;12.396;2024-03-25T01:15:26;7.20;99.90
16758;DHT22;8497;51.346;12.396;2024-03-25T01:18:02;7.20;99.90
16758;DHT22;8497;51.346;12.396;2024-03-25T01:20:31;7.20;99.90
16758;DHT22;8497;51.346;12.396;2024-03-25T01:23:05;6.30;99.90
16758;DHT22;8497;51.346;12.396;2024-03-25T01:25:37;7.20;99.90
16758;DHT22;8497;51.346;12.396;2024-03-25T01:28:11;7.20;99.90
16758;DHT22;8497;51.346;12.396;2024-03-25T01:30:52;7.20;99.90
16758;DHT22;8497;51.346;12.396;2024-03-25T01:33:21;7.20;99.90
16758;DHT22;8497;51.346;12.396;2024-03-25T01:35:48;7.20;99.90
16758;DHT22;8497;51.346;12.396;2024-03-25T01:38:15;7.20;99.90
16758;DHT22;8497;51.346;12.396;2024-03-25T01:40:42;7.20;99.90
16758;DHT22;8497;51.346;12.396;2024-03-25T01:43:11;7.30;99.90
16758;DHT22;8497;51.346;12.396;2024-03-25T01:45:37;7.20;99.90
16758;DHT22;8497;51.346;12.396;2024-03-25T01:48:07;7.30;99.90
16758;DHT22;8497;51.346;12.396;2024-03-25T01:50:39;7.30;99.90
16758;DHT22;8497;51.346;12.396;2024-03-25T01:53:09;7.30;99.90
16758;DHT22;8497;51.346;12.396;2024-03-25T01:55:39;7.20;99.90
16758;DHT22;8497;51.346;12.396;2024-03-25T01:58:06;7.20;99.90
16758;DHT22;8497;51.346;12.396;2024-03-25T02:00:33;7.30;99.90
16758;DHT22;8497;51.346;12.396;2024-03-25T02:03:02;7.20;99.90
16758;DHT22;8497;51.346;12.396;2024-03-25T02:05:29;7.20;99.90
16758;DHT22;8497;51.346;12.396;2024-03-25T02:07:58;7.20;99.90
16758;DHT22;8497;51.346;12.396;2024-03-25T02:10:26;7.20;99.90
16758;DHT22;8497;51.346;12.396;2024-03-25T02:12:55;7.20;99.90
16758;DHT22;8497;51.346;12.396;2024-03-25T02:15:22;7.20;99.90
16758;DHT22;8497;51.346;12.396;2024-03-25T02:17:52;7.20;99.90
16758;DHT22;8497;51.346;12.396;2024-03-25T02:20:19;7.20;99.90
16758;DHT22;8497;51.346;12.396;2024-03-25T02:22:47;7.20;99.90
16758;DHT22;8497;51.346;12.396;2024-03-25T02:25:16;7.20;99.90
16758;DHT22;8497;51.346;12.396;2024-03-25T02:27:46;7.20;99.90
16758;DHT22;8497;51.346;12.396;2024-03-25T02:30:14;7.20;99.90
16758;DHT22;8497;51.346;12.396;2024-03-25T02:32:42;7.20;99.90
16758;DHT22;8497;51.346;12.396;2024-03-25T02:35:12;7.20;99.90
16758;DHT22;8497;51.346;12.396;2024-03-25T02:37:42;7.20;99.90
16758;DHT22;8497;51.346;12.396;2024-03-25T02:40:09;7.30;99.90
16758;DHT22;8497;51.346;12.396;2024-03-25T02:42:40;7.20;99.90
16758;DHT22;8497;51.346;12.396;2024-03-25T02:45:09;7.20;99.90
16758;DHT22;8497;51.346;12.396;2024-03-25T02:47:37;7.10;99.90
16758;DHT22;8497;51.346;12.396;2024-03-25T02:50:04;7.10;99.90
16758;DHT22;8497;51.346;12.396;2024-03-25T02:52:32;7.10;99.90
16758;DHT22;8497;51.346;12.396;2024-03-25T02:54:59;7.10;99.90
16758;DHT22;8497;51.346;12.396;2024-03-25T02:57:26;7.10;99.90
16758;DHT22;8497;51.346;12.396;2024-03-25T02:59:53;7.00;99.90
16758;DHT22;8497;51.346;12.396;2024-03-25T03:02:22;7.00;99.90
16758;DHT22;8497;51.346;12.396;2024-03-25T03:04:49;7.00;99.90
16758;DHT22;8497;51.346;12.396;2024-03-25T03:07:16;7.00;99.90
16758;DHT22;8497;51.346;12.396;2024-03-25T03:09:43;7.00;99.90
16758;DHT22;8497;51.346;12.396;2024-03-25T03:12:11;7.00;99.90
16758;DHT22;8497;51.346;12.396;2024-03-25T03:14:37;7.00;99.90
16758;DHT22;8497;51.346;12.396;2024-03-25T03:17:05;7.00;99.90
16758;DHT22;8497;51.346;12.396;2024-03-25T03:19:35;7.00;99.90
16758;DHT22;8497;51.346;12.396;2024-03-25T03:22:03;7.10;99.90
16758;DHT22;8497;51.346;12.396;2024-03-25T03:24:29;7.00;99.90
16758;DHT22;8497;51.346;12.396;2024-03-25T03:26:57;7.10;99.90
16758;DHT22;8497;51.346;12.396;2024-03-25T03:29:24;7.00;99.90
16758;DHT22;8497;51.346;12.396;2024-03-25T03:31:51;7.00;99.90
16758;DHT22;8497;51.346;12.396;2024-03-25T03:34:18;7.00;99.90
16758;DHT22;8497;51.346;12.396;2024-03-25T03:36:47;7.10;99.90
16758;DHT22;8497;51.346;12.396;2024-03-25T03:39:15;7.00;99.90
16758;DHT22;8497;51.346;12.396;2024-03-25T03:41:43;7.00;99.90
16758;DHT22;8497;51.346;12.396;2024-03-25T03:44:10;7.00;99.90
16758;DHT22;8497;51.346;12.396;2024-03-25T03:46:38;7.00;99.90
16758;DHT22;8497;51.346;12.396;2024-03-25T03:49:06;7.00;99.90
16758;DHT22;8497;51.346;12.396;2024-03-25T03:51:34;7.00;99.90
16758;DHT22;8497;51.346;12.396;2024-03-25T03:54:02;7.00;99.90
16758;DHT22;8497;51.346;12.396;2024-03-25T03:56:29;7.00;99.90
16758;DHT22;8497;51.346;12.396;2024-03-25T03:58:56;7.00;99.90
16758;DHT22;8497;51.346;12.396;2024-03-25T04:01:23;7.00;99.90
16758;DHT22;8497;51.346;12.396;2024-03-25T04:03:50;7.00;99.90
16758;DHT22;8497;51.346;12.396;2024-03-25T04:06:17;7.00;99.90
16758;DHT22;8497;51.346;12.396;2024-03-25T04:08:44;7.00;99.90
16758;DHT22;8497;51.346;12.396;2024-03-25T04:11:13;7.00;99.90
16758;DHT22;8497;51.346;12.396;2024-03-25T04:13:40;7.00;99.90
16758;DHT22;8497;51.346;12.396;2024-03-25T04:16:08;7.00;99.90
16758;DHT22;8497;51.346;12.396;2024-03-25T04:18:35;6.90;99.90
16758;DHT22;8497;51.346;12.396;2024-03-25T04:21:03;7.00;99.90
16758;DHT22;8497;51.346;12.396;2024-03-25T04:23:32;6.80;99.90
16758;DHT22;8497;51.346;12.396;2024-03-25T04:26:01;6.80;99.90
16758;DHT22;8497;51.346;12.396;2024-03-25T04:28:29;6.80;99.90
16758;DHT22;8497;51.346;12.396;2024-03-25T04:30:59;6.80;99.90
16758;DHT22;8497;51.346;12.396;2024-03-25T04:33:25;6.80;99.90
16758;DHT22;8497;51.346;12.396;2024-03-25T04:35:53;6.80;99.90
16758;DHT22;8497;51.346;12.396;2024-03-25T04:38:19;6.80;99.90
16758;DHT22;8497;51.346;12.396;2024-03-25T04:40:46;6.80;99.90
16758;DHT22;8497;51.346;12.396;2024-03-25T04:43:12;6.80;99.90
16758;DHT22;8497;51.346;12.396;2024-03-25T04:45:40;6.80;99.90
16758;DHT22;8497;51.346;12.396;2024-03-25T04:48:07;6.70;99.90
16758;DHT22;8497;51.346;12.396;2024-03-25T04:50:34;6.70;99.90
16758;DHT22;8497;51.346;12.396;2024-03-25T04:53:00;6.70;99.90
16758;DHT22;8497;51.346;12.396;2024-03-25T04:55:27;6.70;99.90
16758;DHT22;8497;51.346;12.396;2024-03-25T04:57:54;6.70;99.90
16758;DHT22;8497;51.346;12.396;2024-03-25T05:00:21;6.70;99.90
16758;DHT22;8497;51.346;12.396;2024-03-25T05:02:51;6.70;99.90
16758;DHT22;8497;51.346;12.396;2024-03-25T05:05:17;6.70;99.90
16758;DHT22;8497;51.346;12.396;2024-03-25T05:07:44;6.70;99.90
16758;DHT22;8497;51.346;12.396;2024-03-25T05:10:10;6.80;99.90
16758;DHT22;8497;51.346;12.396;2024-03-25T05:12:38;6.70;99.90
16758;DHT22;8497;51.346;12.396;2024-03-25T05:15:05;6.70;99.90
16758;DHT22;8497;51.346;12.396;2024-03-25T05:17:32;6.70;99.90
16758;DHT22;8497;51.346;12.396;2024-03-25T05:20:00;6.70;99.90
16758;DHT22;8497;51.346;12.396;2024-03-25T05:22:26;6.80;99.90
16758;DHT22;8497;51.346;12.396;2024-03-25T05:24:53;6.70;99.90
16758;DHT22;8497;51.346;12.396;2024-03-25T05:27:19;6.70;99.90
16758;DHT22;8497;51.346;12.396;2024-03-25T05:29:46;6.80;99.90
16758;DHT22;8497;51.346;12.396;2024-03-25T05:32:12;6.80;99.90
16758;DHT22;8497;51.346;12.396;2024-03-25T05:34:39;6.70;99.90
16758;DHT22;8497;51.346;12.396;2024-03-25T05:37:07;6.80;99.90
16758;DHT22;8497;51.346;12.396;2024-03-25T05:39:34;6.80;99.90
16758;DHT22;8497;51.346;12.396;2024-03-25T05:42:00;6.80;99.90
16758;DHT22;8497;51.346;12.396;2024-03-25T05:44:27;6.80;99.90
16758;DHT22;8497;51.346;12.396;2024-03-25T05:46:53;7.00;99.90
16758;DHT22;8497;51.346;12.396;2024-03-25T05:49:20;6.90;99.90
16758;DHT22;8497;51.346;12.396;2024-03-25T05:51:47;6.90;99.90
16758;DHT22;8497;51.346;12.396;2024-03-25T05:54:18;6.90;99.90
16758;DHT22;8497;51.346;12.396;2024-03-25T05:56:45;6.90;99.90
16758;DHT22;8497;51.346;12.396;2024-03-25T05:59:12;6.90;99.90
16758;DHT22;8497;51.346;12.396;2024-03-25T06:01:38;6.90;99.90
16758;DHT22;8497;51.346;12.396;2024-03-25T06:04:05;6.90;99.90
16758;DHT22;8497;51.346;12.396;2024-03-25T06:06:32;6.90;99.90
16758;DHT22;8497;51.346;12.396;2024-03-25T06:08:58;7.00;99.90
16758;DHT22;8497;51.346;12.396;2024-03-25T06:11:26;7.00;99.90
16758;DHT22;8497;51.346;12.396;2024-03-25T06:13:53;7.00;99.90
16758;DHT22;8497;51.346;12.396;2024-03-25T06:16:19;7.00;99.90
16758;DHT22;8497;51.346;12.396;2024-03-25T06:18:46;7.10;99.90
16758;DHT22;8497;51.346;12.396;2024-03-25T06:21:13;7.10;99.90
16758;DHT22;8497;51.346;12.396;2024-03-25T06:23:39;7.20;99.90
16758;DHT22;8497;51.346;12.396;2024-03-25T06:26:06;7.20;99.90
16758;DHT22;8497;51.346;12.396;2024-03-25T06:28:34;7.20;99.90
16758;DHT22;8497;51.346;12.396;2024-03-25T06:31:00;7.30;99.90
16758;DHT22;8497;51.346;12.396;2024-03-25T06:33:45;7.30;99.90
16758;DHT22;8497;51.346;12.396;2024-03-25T06:36:30;7.30;99.90
16758;DHT22;8497;51.346;12.396;2024-03-25T06:38:57;7.30;99.90
16758;DHT22;8497;51.346;12.396;2024-03-25T06:41:23;7.30;99.90
16758;DHT22;8497;51.346;12.396;2024-03-25T06:43:51;7.30;99.90
16758;DHT22;8497;51.346;12.396;2024-03-25T06:46:18;7.30;99.90
16758;DHT22;8497;51.346;12.396;2024-03-25T06:48:45;7.40;99.90
16758;DHT22;8497;51.346;12.396;2024-03-25T06:51:11;7.40;99.90
16758;DHT22;8497;51.346;12.396;2024-03-25T06:53:38;7.40;99.90
16758;DHT22;8497;51.346;12.396;2024-03-25T06:56:04;7.50;99.90
16758;DHT22;8497;51.346;12.396;2024-03-25T06:58:31;7.50;99.90
16758;DHT22;8497;51.346;12.396;2024-03-25T07:01:05;7.60;99.90
16758;DHT22;8497;51.346;12.396;2024-03-25T07:03:33;7.60;99.90
16758;DHT22;8497;51.346;12.396;2024-03-25T07:06:01;7.70;99.80
16758;DHT22;8497;51.346;12.396;2024-03-25T07:08:28;7.70;99.60
16758;DHT22;8497;51.346;12.396;2024-03-25T07:10:55;7.70;99.60
16758;DHT22;8497;51.346;12.396;2024-03-25T07:13:22;7.80;99.70
16758;DHT22;8497;51.346;12.396;2024-03-25T07:15:49;7.80;99.60
16758;DHT22;8497;51.346;12.396;2024-03-25T07:18:17;7.90;99.60
16758;DHT22;8497;51.346;12.396;2024-03-25T07:20:44;7.90;99.60
16758;DHT22;8497;51.346;12.396;2024-03-25T07:23:11;8.00;99.60
16758;DHT22;8497;51.346;12.396;2024-03-25T07:25:37;8.10;99.60
16758;DHT22;8497;51.346;12.396;2024-03-25T07:28:04;8.20;99.40
16758;DHT22;8497;51.346;12.396;2024-03-25T07:30:34;8.20;99.30
16758;DHT22;8497;51.346;12.396;2024-03-25T07:33:00;8.30;99.30
16758;DHT22;8497;51.346;12.396;2024-03-25T07:35:28;8.30;99.20
16758;DHT22;8497;51.346;12.396;2024-03-25T07:37:55;8.40;99.10
16758;DHT22;8497;51.346;12.396;2024-03-25T07:40:29;8.40;99.10
16758;DHT22;8497;51.346;12.396;2024-03-25T07:43:03;8.30;98.80
16758;DHT22;8497;51.346;12.396;2024-03-25T07:45:30;8.50;98.80
16758;DHT22;8497;51.346;12.396;2024-03-25T07:47:58;8.60;98.90
16758;DHT22;8497;51.346;12.396;2024-03-25T07:50:28;9.10;98.90
16758;DHT22;8497;51.346;12.396;2024-03-25T07:52:55;8.80;98.10
16758;DHT22;8497;51.346;12.396;2024-03-25T07:55:23;8.80;98.10
16758;DHT22;8497;51.346;12.396;2024-03-25T07:57:49;8.80;98.10
16758;DHT22;8497;51.346;12.396;2024-03-25T08:00:16;8.90;97.90
16758;DHT22;8497;51.346;12.396;2024-03-25T08:02:43;9.00;97.80
16758;DHT22;8497;51.346;12.396;2024-03-25T08:05:10;9.10;97.60
16758;DHT22;8497;51.346;12.396;2024-03-25T08:07:38;9.10;97.30
16758;DHT22;8497;51.346;12.396;2024-03-25T08:10:05;9.20;97.20
16758;DHT22;8497;51.346;12.396;2024-03-25T08:12:32;9.20;97.10
16758;DHT22;8497;51.346;12.396;2024-03-25T08:14:59;9.30;97.20
16758;DHT22;8497;51.346;12.396;2024-03-25T08:17:26;9.30;97.20
16758;DHT22;8497;51.346;12.396;2024-03-25T08:19:52;9.40;97.00
16758;DHT22;8497;51.346;12.396;2024-03-25T08:22:22;9.50;97.10
16758;DHT22;8497;51.346;12.396;2024-03-25T08:24:58;9.50;97.30
16758;DHT22;8497;51.346;12.396;2024-03-25T08:27:25;9.50;96.80
16758;DHT22;8497;51.346;12.396;2024-03-25T08:29:51;9.40;96.30
16758;DHT22;8497;51.346;12.396;2024-03-25T08:32:18;9.40;96.50
16758;DHT22;8497;51.346;12.396;2024-03-25T08:34:47;9.40;96.60
16758;DHT22;8497;51.346;12.396;2024-03-25T08:37:19;9.40;96.50
16758;DHT22;8497;51.346;12.396;2024-03-25T08:39:46;9.30;96.40
16758;DHT22;8497;51.346;12.396;2024-03-25T08:42:22;9.20;96.10
16758;DHT22;8497;51.346;12.396;2024-03-25T08:44:55;9.20;96.50
16758;DHT22;8497;51.346;12.396;2024-03-25T08:47:23;9.10;96.20
16758;DHT22;8497;51.346;12.396;2024-03-25T08:49:52;9.10;96.50
16758;DHT22;8497;51.346;12.396;2024-03-25T08:52:20;9.20;96.20
16758;DHT22;8497;51.346;12.396;2024-03-25T08:55:10;9.30;96.70
16758;DHT22;8497;51.346;12.396;2024-03-25T08:57:45;9.40;96.60
16758;DHT22;8497;51.346;12.396;2024-03-25T09:00:13;9.40;96.20
16758;DHT22;8497;51.346;12.396;2024-03-25T09:02:40;9.40;96.10
16758;DHT22;8497;51.346;12.396;2024-03-25T09:05:07;9.50;96.20
16758;DHT22;8497;51.346;12.396;2024-03-25T09:07:34;9.60;96.30
16758;DHT22;8497;51.346;12.396;2024-03-25T09:10:00;9.80;96.20
16758;DHT22;8497;51.346;12.396;2024-03-25T09:12:47;9.80;96.20
16758;DHT22;8497;51.346;12.396;2024-03-25T09:15:13;9.90;96.00
16758;DHT22;8497;51.346;12.396;2024-03-25T09:17:40;10.00;95.10
16758;DHT22;8497;51.346;12.396;2024-03-25T09:20:07;10.20;95.10
16758;DHT22;8497;51.346;12.396;2024-03-25T09:22:36;10.30;94.90
16758;DHT22;8497;51.346;12.396;2024-03-25T09:25:02;10.30;94.70
16758;DHT22;8497;51.346;12.396;2024-03-25T09:27:29;10.20;94.50
16758;DHT22;8497;51.346;12.396;2024-03-25T09:29:57;10.00;94.50
16758;DHT22;8497;51.346;12.396;2024-03-25T09:32:33;9.80;95.10
16758;DHT22;8497;51.346;12.396;2024-03-25T09:35:05;9.70;95.40
16758;DHT22;8497;51.346;12.396;2024-03-25T09:37:31;9.60;95.70
16758;DHT22;8497;51.346;12.396;2024-03-25T09:40:05;9.70;96.10
16758;DHT22;8497;51.346;12.396;2024-03-25T09:42:34;9.80;95.80
16758;DHT22;8497;51.346;12.396;2024-03-25T09:45:09;9.80;95.70
16758;DHT22;8497;51.346;12.396;2024-03-25T09:47:38;9.70;95.60
16758;DHT22;8497;51.346;12.396;2024-03-25T09:50:07;9.60;95.60
16758;DHT22;8497;51.346;12.396;2024-03-25T09:52:36;9.50;95.80
16758;DHT22;8497;51.346;12.396;2024-03-25T09:55:02;9.70;96.00
16758;DHT22;8497;51.346;12.396;2024-03-25T09:57:29;9.80;96.20
16758;DHT22;8497;51.346;12.396;2024-03-25T09:59:57;10.10;95.80
16758;DHT22;8497;51.346;12.396;2024-03-25T10:02:25;10.20;95.70
16758;DHT22;8497;51.346;12.396;2024-03-25T10:04:54;10.30;95.60
16758;DHT22;8497;51.346;12.396;2024-03-25T10:07:25;10.40;95.60
16758;DHT22;8497;51.346;12.396;2024-03-25T10:09:52;10.60;95.60
16758;DHT22;8497;51.346;12.396;2024-03-25T10:12:21;10.60;95.40
16758;DHT22;8497;51.346;12.396;2024-03-25T10:14:48;10.80;95.50
16758;DHT22;8497;51.346;12.396;2024-03-25T10:17:15;11.00;95.20
16758;DHT22;8497;51.346;12.396;2024-03-25T10:19:43;11.00;94.80
16758;DHT22;8497;51.346;12.396;2024-03-25T10:22:09;11.00;94.40
16758;DHT22;8497;51.346;12.396;2024-03-25T10:24:40;11.20;94.50
16758;DHT22;8497;51.346;12.396;2024-03-25T10:27:17;11.60;94.30
16758;DHT22;8497;51.346;12.396;2024-03-25T10:29:45;11.50;94.20
16758;DHT22;8497;51.346;12.396;2024-03-25T10:32:13;11.60;93.70
16758;DHT22;8497;51.346;12.396;2024-03-25T10:34:39;11.60;93.50
16758;DHT22;8497;51.346;12.396;2024-03-25T10:37:09;11.60;93.30
16758;DHT22;8497;51.346;12.396;2024-03-25T10:39:39;11.50;93.00
16758;DHT22;8497;51.346;12.396;2024-03-25T10:42:16;11.40;92.80
16758;DHT22;8497;51.346;12.396;2024-03-25T10:44:45;11.40;92.70
16758;DHT22;8497;51.346;12.396;2024-03-25T10:47:17;11.40;92.80
16758;DHT22;8497;51.346;12.396;2024-03-25T10:49:49;11.40;92.70
16758;DHT22;8497;51.346;12.396;2024-03-25T10:52:20;11.40;92.60
16758;DHT22;8497;51.346;12.396;2024-03-25T10:54:48;11.40;92.30
16758;DHT22;8497;51.346;12.396;2024-03-25T10:57:16;11.30;91.80
16758;DHT22;8497;51.346;12.396;2024-03-25T10:59:43;11.20;91.60
16758;DHT22;8497;51.346;12.396;2024-03-25T11:02:12;11.10;91.40
16758;DHT22;8497;51.346;12.396;2024-03-25T11:04:39;10.90;91.30
16758;DHT22;8497;51.346;12.396;2024-03-25T11:07:08;10.90;91.20
16758;DHT22;8497;51.346;12.396;2024-03-25T11:09:36;10.90;91.20
16758;DHT22;8497;51.346;12.396;2024-03-25T11:12:03;10.90;91.00
16758;DHT22;8497;51.346;12.396;2024-03-25T11:14:30;10.90;91.00
16758;DHT22;8497;51.346;12.396;2024-03-25T11:16:58;11.00;91.00
16758;DHT22;8497;51.346;12.396;2024-03-25T11:19:28;11.10;91.00
16758;DHT22;8497;51.346;12.396;2024-03-25T11:22:07;11.20;90.80
16758;DHT22;8497;51.346;12.396;2024-03-25T11:24:38;11.20;90.80
16758;DHT22;8497;51.346;12.396;2024-03-25T11:27:10;11.30;90.40
16758;DHT22;8497;51.346;12.396;2024-03-25T11:29:36;11.20;90.10
16758;DHT22;8497;51.346;12.396;2024-03-25T11:32:04;11.10;90.00
16758;DHT22;8497;51.346;12.396;2024-03-25T11:34:31;11.00;89.80
16758;DHT22;8497;51.346;12.396;2024-03-25T11:36:58;10.90;89.80
16758;DHT22;8497;51.346;12.396;2024-03-25T11:39:25;10.80;90.00
16758;DHT22;8497;51.346;12.396;2024-03-25T11:41:53;10.60;89.60
16758;DHT22;8497;51.346;12.396;2024-03-25T11:44:19;10.60;90.00
16758;DHT22;8497;51.346;12.396;2024-03-25T11:46:47;10.50;90.10
16758;DHT22;8497;51.346;12.396;2024-03-25T11:49:16;10.70;90.30
16758;DHT22;8497;51.346;12.396;2024-03-25T11:51:43;10.80;90.10
16758;DHT22;8497;51.346;12.396;2024-03-25T11:54:11;10.80;90.10
16758;DHT22;8497;51.346;12.396;2024-03-25T11:56:38;10.90;90.20
16758;DHT22;8497;51.346;12.396;2024-03-25T11:59:06;10.90;90.00
16758;DHT22;8497;51.346;12.396;2024-03-25T12:01:36;10.90;90.10
16758;DHT22;8497;51.346;12.396;2024-03-25T12:04:10;11.00;90.30
16758;DHT22;8497;51.346;12.396;2024-03-25T12:06:36;11.10;90.10
16758;DHT22;8497;51.346;12.396;2024-03-25T12:09:03;11.10;90.00
16758;DHT22;8497;51.346;12.396;2024-03-25T12:11:50;11.10;90.20
16758;DHT22;8497;51.346;12.396;2024-03-25T12:14:19;11.10;90.10
16758;DHT22;8497;51.346;12.396;2024-03-25T12:16:46;11.20;90.20
16758;DHT22;8497;51.346;12.396;2024-03-25T12:19:13;11.30;90.20
16758;DHT22;8497;51.346;12.396;2024-03-25T12:21:39;11.40;90.20
16758;DHT22;8497;51.346;12.396;2024-03-25T12:24:07;11.40;89.60
16758;DHT22;8497;51.346;12.396;2024-03-25T12:26:34;11.30;89.60
16758;DHT22;8497;51.346;12.396;2024-03-25T12:29:01;11.20;89.60
16758;DHT22;8497;51.346;12.396;2024-03-25T12:31:29;11.30;90.00
16758;DHT22;8497;51.346;12.396;2024-03-25T12:33:55;11.30;89.50
16758;DHT22;8497;51.346;12.396;2024-03-25T12:36:22;11.40;89.40
16758;DHT22;8497;51.346;12.396;2024-03-25T12:38:54;11.30;88.90
16758;DHT22;8497;51.346;12.396;2024-03-25T12:41:22;11.20;88.80
16758;DHT22;8497;51.346;12.396;2024-03-25T12:43:50;11.20;88.70
16758;DHT22;8497;51.346;12.396;2024-03-25T12:46:18;11.20;88.70
16758;DHT22;8497;51.346;12.396;2024-03-25T12:48:46;11.20;88.70
16758;DHT22;8497;51.346;12.396;2024-03-25T12:51:13;11.30;88.90
16758;DHT22;8497;51.346;12.396;2024-03-25T12:53:41;11.40;88.90
16758;DHT22;8497;51.346;12.396;2024-03-25T12:56:08;11.50;89.20
16758;DHT22;8497;51.346;12.396;2024-03-25T12:58:35;11.60;89.10
16758;DHT22;8497;51.346;12.396;2024-03-25T13:01:05;11.60;89.00
16758;DHT22;8497;51.346;12.396;2024-03-25T13:03:35;11.60;88.90
16758;DHT22;8497;51.346;12.396;2024-03-25T13:06:18;11.50;88.60
16758;DHT22;8497;51.346;12.396;2024-03-25T13:08:47;11.50;87.80
16758;DHT22;8497;51.346;12.396;2024-03-25T13:11:13;11.50;87.80
16758;DHT22;8497;51.346;12.396;2024-03-25T13:13:42;11.60;87.90
16758;DHT22;8497;51.346;12.396;2024-03-25T13:16:08;11.70;87.30
16758;DHT22;8497;51.346;12.396;2024-03-25T13:18:35;11.70;87.50
16758;DHT22;8497;51.346;12.396;2024-03-25T13:21:02;11.80;87.00
16758;DHT22;8497;51.346;12.396;2024-03-25T13:23:33;11.80;86.40
16758;DHT22;8497;51.346;12.396;2024-03-25T13:25:59;11.80;85.80
16758;DHT22;8497;51.346;12.396;2024-03-25T13:28:26;11.80;85.00
16758;DHT22;8497;51.346;12.396;2024-03-25T13:30:52;11.80;84.70
16758;DHT22;8497;51.346;12.396;2024-03-25T13:33:19;11.90;84.50
16758;DHT22;8497;51.346;12.396;2024-03-25T13:35:45;11.90;84.10
16758;DHT22;8497;51.346;12.396;2024-03-25T13:38:12;11.90;83.90
16758;DHT22;8497;51.346;12.396;2024-03-25T13:40:41;11.80;83.30
16758;DHT22;8497;51.346;12.396;2024-03-25T13:43:08;11.80;83.10
16758;DHT22;8497;51.346;12.396;2024-03-25T13:45:35;11.80;83.10
16758;DHT22;8497;51.346;12.396;2024-03-25T13:48:01;11.80;83.00
16758;DHT22;8497;51.346;12.396;2024-03-25T13:50:28;11.80;83.30
16758;DHT22;8497;51.346;12.396;2024-03-25T13:52:55;11.70;83.10
16758;DHT22;8497;51.346;12.396;2024-03-25T13:55:21;11.70;83.20
16758;DHT22;8497;51.346;12.396;2024-03-25T13:57:49;11.70;83.20
16758;DHT22;8497;51.346;12.396;2024-03-25T14:00:16;11.70;82.90
16758;DHT22;8497;51.346;12.396;2024-03-25T14:02:43;11.70;82.60
16758;DHT22;8497;51.346;12.396;2024-03-25T14:05:10;11.60;81.70
16758;DHT22;8497;51.346;12.396;2024-03-25T14:07:36;11.50;81.60
16758;DHT22;8497;51.346;12.396;2024-03-25T14:10:03;11.50;81.30
16758;DHT22;8497;51.346;12.396;2024-03-25T14:12:30;11.40;81.30
16758;DHT22;8497;51.346;12.396;2024-03-25T14:14:58;11.40;81.50
16758;DHT22;8497;51.346;12.396;2024-03-25T14:17:24;11.50;81.50
16758;DHT22;8497;51.346;12.396;2024-03-25T14:19:53;11.50;81.70
16758;DHT22;8497;51.346;12.396;2024-03-25T14:22:22;11.60;81.90
16758;DHT22;8497;51.346;12.396;2024-03-25T14:24:49;11.80;81.30
16758;DHT22;8497;51.346;12.396;2024-03-25T14:27:16;12.00;81.20
16758;DHT22;8497;51.346;12.396;2024-03-25T14:29:45;12.10;80.30
16758;DHT22;8497;51.346;12.396;2024-03-25T14:35:27;12.20;78.30
16758;DHT22;8497;51.346;12.396;2024-03-25T14:37:53;12.30;78.90
16758;DHT22;8497;51.346;12.396;2024-03-25T14:40:20;12.30;77.60
16758;DHT22;8497;51.346;12.396;2024-03-25T14:42:46;12.30;77.90
16758;DHT22;8497;51.346;12.396;2024-03-25T14:45:13;12.30;76.80
16758;DHT22;8497;51.346;12.396;2024-03-25T14:47:40;12.30;76.80
16758;DHT22;8497;51.346;12.396;2024-03-25T14:50:07;12.20;76.80
16758;DHT22;8497;51.346;12.396;2024-03-25T14:52:37;12.30;76.70
16758;DHT22;8497;51.346;12.396;2024-03-25T14:55:04;12.30;75.90
16758;DHT22;8497;51.346;12.396;2024-03-25T14:57:31;12.30;75.70
16758;DHT22;8497;51.346;12.396;2024-03-25T14:59:58;12.40;74.40
16758;DHT22;8497;51.346;12.396;2024-03-25T15:02:24;12.40;74.40
16758;DHT22;8497;51.346;12.396;2024-03-25T15:04:51;12.50;74.10
16758;DHT22;8497;51.346;12.396;2024-03-25T15:07:18;12.70;73.60
16758;DHT22;8497;51.346;12.396;2024-03-25T15:09:46;12.80;73.10
16758;DHT22;8497;51.346;12.396;2024-03-25T15:12:12;12.90;71.30
16758;DHT22;8497;51.346;12.396;2024-03-25T15:14:39;12.90;72.00
16758;DHT22;8497;51.346;12.396;2024-03-25T15:17:06;12.80;70.40
16758;DHT22;8497;51.346;12.396;2024-03-25T15:19:33;12.70;69.70
16758;DHT22;8497;51.346;12.396;2024-03-25T15:22:00;12.70;69.40
16758;DHT22;8497;51.346;12.396;2024-03-25T15:24:26;12.70;69.00
16758;DHT22;8497;51.346;12.396;2024-03-25T15:26:54;12.60;68.20
16758;DHT22;8497;51.346;12.396;2024-03-25T15:29:21;12.50;68.10
16758;DHT22;8497;51.346;12.396;2024-03-25T15:31:48;12.40;67.90
16758;DHT22;8497;51.346;12.396;2024-03-25T15:34:15;12.40;67.50
16758;DHT22;8497;51.346;12.396;2024-03-25T15:36:41;12.30;67.20
16758;DHT22;8497;51.346;12.396;2024-03-25T15:39:08;12.20;66.80
16758;DHT22;8497;51.346;12.396;2024-03-25T15:41:34;12.20;66.90
16758;DHT22;8497;51.346;12.396;2024-03-25T15:44:05;12.20;66.80
16758;DHT22;8497;51.346;12.396;2024-03-25T15:46:54;12.20;67.20
16758;DHT22;8497;51.346;12.396;2024-03-25T15:50:28;12.20;66.80